sensor_id;sensor_type;location;lat;lon;timestamp;P1;durP1;ratioP1;P2;durP2;ratioP2
18217;SDS011;9234;49.344;11.120;2023-04-10T00:01:43;15.90;;;11.67;;
18217;SDS011;9234;49.344;11.120;2023-04-10T00:04:11;17.57;;;10.60;;
18217;SDS011;9234;49.344;11.120;2023-04-10T00:06:41;14.93;;;10.90;;
18217;SDS011;9234;49.344;11.120;2023-04-10T00:09:09;14.97;;;10.63;;
18217;SDS011;9234;49.344;11.120;2023-04-10T00:11:37;14.97;;;10.63;;
18217;SDS011;9234;49.344;11.120;2023-04-10T00:14:07;13.37;;;10.37;;
18217;SDS011;9234;49.344;11.120;2023-04-10T00:16:35;14.30;;;10.67;;
18217;SDS011;9234;49.344;11.120;2023-04-10T00:19:03;13.80;;;10.13;;
18217;SDS011;9234;49.344;11.120;2023-04-10T00:21:33;16.20;;;11.60;;
18217;SDS011;9234;49.344;11.120;2023-04-10T00:24:01;19.60;;;11.83;;
18217;SDS011;9234;49.344;11.120;2023-04-10T00:26:30;16.17;;;12.23;;
18217;SDS011;9234;49.344;11.120;2023-04-10T00:28:58;16.03;;;11.40;;
18217;SDS011;9234;49.344;11.120;2023-04-10T00:31:28;16.40;;;11.90;;
18217;SDS011;9234;49.344;11.120;2023-04-10T00:33:57;16.63;;;11.53;;
18217;SDS011;9234;49.344;11.120;2023-04-10T00:36:25;14.83;;;10.20;;
18217;SDS011;9234;49.344;11.120;2023-04-10T00:38:54;16.43;;;11.50;;
18217;SDS011;9234;49.344;11.120;2023-04-10T00:41:22;15.27;;;10.13;;
18217;SDS011;9234;49.344;11.120;2023-04-10T00:43:53;16.30;;;10.80;;
18217;SDS011;9234;49.344;11.120;2023-04-10T00:46:23;15.87;;;11.23;;
18217;SDS011;9234;49.344;11.120;2023-04-10T00:48:53;13.40;;;10.00;;
18217;SDS011;9234;49.344;11.120;2023-04-10T00:51:22;17.00;;;11.53;;
18217;SDS011;9234;49.344;11.120;2023-04-10T00:53:51;15.93;;;11.43;;
18217;SDS011;9234;49.344;11.120;2023-04-10T00:56:21;18.50;;;11.47;;
18217;SDS011;9234;49.344;11.120;2023-04-10T00:58:51;18.63;;;12.47;;
18217;SDS011;9234;49.344;11.120;2023-04-10T01:01:19;16.03;;;11.57;;
18217;SDS011;9234;49.344;11.120;2023-04-10T01:03:47;16.43;;;10.93;;
18217;SDS011;9234;49.344;11.120;2023-04-10T01:06:25;17.33;;;10.83;;
18217;SDS011;9234;49.344;11.120;2023-04-10T01:09:07;18.33;;;12.47;;
18217;SDS011;9234;49.344;11.120;2023-04-10T01:11:44;22.67;;;13.03;;
18217;SDS011;9234;49.344;11.120;2023-04-10T01:14:21;17.27;;;11.03;;
18217;SDS011;9234;49.344;11.120;2023-04-10T01:17:00;18.10;;;11.40;;
18217;SDS011;9234;49.344;11.120;2023-04-10T01:19:40;15.03;;;10.33;;
18217;SDS011;9234;49.344;11.120;2023-04-10T01:22:36;14.53;;;9.90;;
18217;SDS011;9234;49.344;11.120;2023-04-10T01:25:22;12.50;;;9.57;;
18217;SDS011;9234;49.344;11.120;2023-04-10T01:28:28;15.63;;;10.60;;
18217;SDS011;9234;49.344;11.120;2023-04-10T01:31:18;15.63;;;11.43;;
18217;SDS011;9234;49.344;11.120;2023-04-10T01:33:55;18.93;;;11.53;;
18217;SDS011;9234;49.344;11.120;2023-04-10T01:36:33;14.93;;;9.97;;
18217;SDS011;9234;49.344;11.120;2023-04-10T01:39:07;14.47;;;10.67;;
18217;SDS011;9234;49.344;11.120;2023-04-10T01:41:37;14.53;;;10.80;;
18217;SDS011;9234;49.344;11.120;2023-04-10T01:44:13;15.53;;;11.03;;
18217;SDS011;9234;49.344;11.120;2023-04-10T01:46:44;15.63;;;10.60;;
18217;SDS011;9234;49.344;11.120;2023-04-10T01:49:13;14.33;;;10.23;;
18217;SDS011;9234;49.344;11.120;2023-04-10T01:51:44;16.40;;;11.27;;
18217;SDS011;9234;49.344;11.120;2023-04-10T01:54:14;16.13;;;10.87;;
18217;SDS011;9234;49.344;11.120;2023-04-10T01:56:43;14.90;;;10.60;;
18217;SDS011;9234;49.344;11.120;2023-04-10T01:59:15;17.77;;;11.00;;
18217;SDS011;9234;49.344;11.120;2023-04-10T02:01:44;15.87;;;10.67;;
18217;SDS011;9234;49.344;11.120;2023-04-10T02:04:12;16.37;;;9.87;;
18217;SDS011;9234;49.344;11.120;2023-04-10T02:06:46;17.93;;;11.07;;
18217;SDS011;9234;49.344;11.120;2023-04-10T02:09:21;16.30;;;10.67;;
18217;SDS011;9234;49.344;11.120;2023-04-10T02:11:57;13.37;;;10.00;;
18217;SDS011;9234;49.344;11.120;2023-04-10T02:14:35;16.23;;;10.63;;
18217;SDS011;9234;49.344;11.120;2023-04-10T02:17:08;14.40;;;10.03;;
18217;SDS011;9234;49.344;11.120;2023-04-10T02:19:39;12.67;;;9.37;;
18217;SDS011;9234;49.344;11.120;2023-04-10T02:22:12;14.27;;;10.20;;
18217;SDS011;9234;49.344;11.120;2023-04-10T02:24:42;15.67;;;10.63;;
18217;SDS011;9234;49.344;11.120;2023-04-10T02:27:10;15.97;;;9.87;;
18217;SDS011;9234;49.344;11.120;2023-04-10T02:29:40;15.57;;;10.77;;
18217;SDS011;9234;49.344;11.120;2023-04-10T02:32:08;15.77;;;10.20;;
18217;SDS011;9234;49.344;11.120;2023-04-10T02:34:37;17.70;;;10.80;;
18217;SDS011;9234;49.344;11.120;2023-04-10T02:37:05;17.57;;;11.27;;
18217;SDS011;9234;49.344;11.120;2023-04-10T02:39:34;15.70;;;10.23;;
18217;SDS011;9234;49.344;11.120;2023-04-10T02:42:03;18.73;;;12.07;;
18217;SDS011;9234;49.344;11.120;2023-04-10T02:44:31;17.53;;;11.03;;
18217;SDS011;9234;49.344;11.120;2023-04-10T02:47:01;16.30;;;11.83;;
18217;SDS011;9234;49.344;11.120;2023-04-10T02:49:31;20.37;;;12.90;;
18217;SDS011;9234;49.344;11.120;2023-04-10T02:52:08;18.53;;;11.90;;
18217;SDS011;9234;49.344;11.120;2023-04-10T02:54:36;17.10;;;11.17;;
18217;SDS011;9234;49.344;11.120;2023-04-10T02:57:04;16.07;;;11.37;;
18217;SDS011;9234;49.344;11.120;2023-04-10T02:59:33;18.27;;;12.07;;
18217;SDS011;9234;49.344;11.120;2023-04-10T03:02:05;16.47;;;11.37;;
18217;SDS011;9234;49.344;11.120;2023-04-10T03:04:36;16.70;;;10.63;;
18217;SDS011;9234;49.344;11.120;2023-04-10T03:07:04;15.93;;;10.73;;
18217;SDS011;9234;49.344;11.120;2023-04-10T03:09:34;15.87;;;10.73;;
18217;SDS011;9234;49.344;11.120;2023-04-10T03:12:02;14.73;;;10.13;;
18217;SDS011;9234;49.344;11.120;2023-04-10T03:14:30;15.27;;;9.93;;
18217;SDS011;9234;49.344;11.120;2023-04-10T03:16:59;16.20;;;10.73;;
18217;SDS011;9234;49.344;11.120;2023-04-10T03:19:28;15.57;;;11.03;;
18217;SDS011;9234;49.344;11.120;2023-04-10T03:21:56;14.23;;;9.90;;
18217;SDS011;9234;49.344;11.120;2023-04-10T03:24:25;16.60;;;10.57;;
18217;SDS011;9234;49.344;11.120;2023-04-10T03:26:55;16.33;;;10.77;;
18217;SDS011;9234;49.344;11.120;2023-04-10T03:29:23;15.57;;;10.23;;
18217;SDS011;9234;49.344;11.120;2023-04-10T03:31:54;16.17;;;11.13;;
18217;SDS011;9234;49.344;11.120;2023-04-10T03:34:23;15.07;;;10.33;;
18217;SDS011;9234;49.344;11.120;2023-04-10T03:36:53;15.00;;;10.17;;
18217;SDS011;9234;49.344;11.120;2023-04-10T03:39:21;15.97;;;10.73;;
18217;SDS011;9234;49.344;11.120;2023-04-10T03:41:49;16.00;;;10.10;;
18217;SDS011;9234;49.344;11.120;2023-04-10T03:44:18;14.77;;;9.97;;
18217;SDS011;9234;49.344;11.120;2023-04-10T03:46:47;14.87;;;10.97;;
18217;SDS011;9234;49.344;11.120;2023-04-10T03:49:16;15.97;;;11.23;;
18217;SDS011;9234;49.344;11.120;2023-04-10T03:51:45;16.23;;;10.17;;
18217;SDS011;9234;49.344;11.120;2023-04-10T03:54:14;16.23;;;10.20;;
18217;SDS011;9234;49.344;11.120;2023-04-10T03:56:42;14.17;;;10.27;;
18217;SDS011;9234;49.344;11.120;2023-04-10T03:59:11;16.17;;;11.20;;
18217;SDS011;9234;49.344;11.120;2023-04-10T04:01:39;17.30;;;10.03;;
18217;SDS011;9234;49.344;11.120;2023-04-10T04:04:09;20.00;;;11.10;;
18217;SDS011;9234;49.344;11.120;2023-04-10T04:07:11;16.37;;;11.13;;
18217;SDS011;9234;49.344;11.120;2023-04-10T04:09:49;16.47;;;10.47;;
18217;SDS011;9234;49.344;11.120;2023-04-10T04:12:32;17.10;;;10.37;;
18217;SDS011;9234;49.344;11.120;2023-04-10T04:15:27;14.93;;;10.20;;
18217;SDS011;9234;49.344;11.120;2023-04-10T04:18:13;14.97;;;10.03;;
18217;SDS011;9234;49.344;11.120;2023-04-10T04:20:49;16.03;;;10.50;;
18217;SDS011;9234;49.344;11.120;2023-04-10T04:23:31;15.70;;;9.53;;
18217;SDS011;9234;49.344;11.120;2023-04-10T04:26:15;14.57;;;10.57;;
18217;SDS011;9234;49.344;11.120;2023-04-10T04:29:06;16.40;;;9.83;;
18217;SDS011;9234;49.344;11.120;2023-04-10T04:31:37;14.53;;;10.17;;
18217;SDS011;9234;49.344;11.120;2023-04-10T04:34:13;14.20;;;9.83;;
18217;SDS011;9234;49.344;11.120;2023-04-10T04:37:02;14.60;;;9.63;;
18217;SDS011;9234;49.344;11.120;2023-04-10T04:39:33;13.57;;;9.03;;
18217;SDS011;9234;49.344;11.120;2023-04-10T04:42:13;15.03;;;10.23;;
18217;SDS011;9234;49.344;11.120;2023-04-10T04:45:00;15.40;;;10.80;;
18217;SDS011;9234;49.344;11.120;2023-04-10T04:48:00;16.63;;;11.00;;
18217;SDS011;9234;49.344;11.120;2023-04-10T04:50:49;18.47;;;10.67;;
18217;SDS011;9234;49.344;11.120;2023-04-10T04:53:40;14.77;;;10.40;;
18217;SDS011;9234;49.344;11.120;2023-04-10T04:56:36;14.43;;;10.80;;
18217;SDS011;9234;49.344;11.120;2023-04-10T04:59:21;16.50;;;10.77;;
18217;SDS011;9234;49.344;11.120;2023-04-10T05:02:08;14.07;;;10.47;;
18217;SDS011;9234;49.344;11.120;2023-04-10T05:04:42;15.90;;;10.87;;
18217;SDS011;9234;49.344;11.120;2023-04-10T05:07:33;16.37;;;10.70;;
18217;SDS011;9234;49.344;11.120;2023-04-10T05:10:22;20.93;;;11.90;;
18217;SDS011;9234;49.344;11.120;2023-04-10T05:13:18;16.90;;;11.53;;
18217;SDS011;9234;49.344;11.120;2023-04-10T05:16:08;17.90;;;11.63;;
18217;SDS011;9234;49.344;11.120;2023-04-10T05:18:55;17.17;;;10.33;;
18217;SDS011;9234;49.344;11.120;2023-04-10T05:21:44;16.67;;;10.23;;
18217;SDS011;9234;49.344;11.120;2023-04-10T05:24:31;15.73;;;11.80;;
18217;SDS011;9234;49.344;11.120;2023-04-10T05:27:11;15.47;;;10.70;;
18217;SDS011;9234;49.344;11.120;2023-04-10T05:30:03;15.40;;;10.20;;
18217;SDS011;9234;49.344;11.120;2023-04-10T05:32:36;18.10;;;11.43;;
18217;SDS011;9234;49.344;11.120;2023-04-10T05:35:23;14.70;;;10.73;;
18217;SDS011;9234;49.344;11.120;2023-04-10T05:38:10;16.80;;;10.73;;
18217;SDS011;9234;49.344;11.120;2023-04-10T05:40:54;17.33;;;11.63;;
18217;SDS011;9234;49.344;11.120;2023-04-10T05:43:36;19.93;;;12.60;;
18217;SDS011;9234;49.344;11.120;2023-04-10T05:46:11;19.40;;;12.27;;
18217;SDS011;9234;49.344;11.120;2023-04-10T05:49:13;20.60;;;12.30;;
18217;SDS011;9234;49.344;11.120;2023-04-10T05:52:00;16.83;;;11.00;;
18217;SDS011;9234;49.344;11.120;2023-04-10T05:54:41;20.93;;;12.80;;
18217;SDS011;9234;49.344;11.120;2023-04-10T05:57:24;16.10;;;11.20;;
18217;SDS011;9234;49.344;11.120;2023-04-10T06:00:12;21.03;;;12.97;;
18217;SDS011;9234;49.344;11.120;2023-04-10T06:03:21;17.30;;;10.70;;
18217;SDS011;9234;49.344;11.120;2023-04-10T06:05:58;22.57;;;14.00;;
18217;SDS011;9234;49.344;11.120;2023-04-10T06:08:29;21.67;;;13.53;;
18217;SDS011;9234;49.344;11.120;2023-04-10T06:10:58;20.50;;;11.47;;
18217;SDS011;9234;49.344;11.120;2023-04-10T06:13:27;20.87;;;12.07;;
18217;SDS011;9234;49.344;11.120;2023-04-10T06:15:58;22.63;;;13.67;;
18217;SDS011;9234;49.344;11.120;2023-04-10T06:18:28;18.87;;;12.57;;
18217;SDS011;9234;49.344;11.120;2023-04-10T06:20:58;18.67;;;13.17;;
18217;SDS011;9234;49.344;11.120;2023-04-10T06:23:27;21.07;;;13.30;;
18217;SDS011;9234;49.344;11.120;2023-04-10T06:25:55;19.60;;;12.60;;
18217;SDS011;9234;49.344;11.120;2023-04-10T06:28:24;20.03;;;14.17;;
18217;SDS011;9234;49.344;11.120;2023-04-10T06:30:55;24.23;;;14.57;;
18217;SDS011;9234;49.344;11.120;2023-04-10T06:33:29;19.43;;;13.60;;
18217;SDS011;9234;49.344;11.120;2023-04-10T06:35:59;23.23;;;13.83;;
18217;SDS011;9234;49.344;11.120;2023-04-10T06:38:31;18.87;;;13.37;;
18217;SDS011;9234;49.344;11.120;2023-04-10T06:41:04;25.07;;;15.47;;
18217;SDS011;9234;49.344;11.120;2023-04-10T06:43:32;22.70;;;14.73;;
18217;SDS011;9234;49.344;11.120;2023-04-10T06:46:01;24.00;;;14.63;;
18217;SDS011;9234;49.344;11.120;2023-04-10T06:48:31;26.27;;;16.57;;
18217;SDS011;9234;49.344;11.120;2023-04-10T06:51:01;23.10;;;15.30;;
18217;SDS011;9234;49.344;11.120;2023-04-10T06:53:29;19.43;;;13.50;;
18217;SDS011;9234;49.344;11.120;2023-04-10T06:55:58;20.33;;;13.50;;
18217;SDS011;9234;49.344;11.120;2023-04-10T06:58:29;21.17;;;14.10;;
18217;SDS011;9234;49.344;11.120;2023-04-10T07:00:57;20.73;;;14.23;;
18217;SDS011;9234;49.344;11.120;2023-04-10T07:03:29;20.77;;;13.27;;
18217;SDS011;9234;49.344;11.120;2023-04-10T07:06:00;18.50;;;12.80;;
18217;SDS011;9234;49.344;11.120;2023-04-10T07:08:28;21.70;;;12.10;;
18217;SDS011;9234;49.344;11.120;2023-04-10T07:10:57;17.67;;;12.13;;
18217;SDS011;9234;49.344;11.120;2023-04-10T07:13:25;15.97;;;12.37;;
18217;SDS011;9234;49.344;11.120;2023-04-10T07:15:53;15.43;;;10.00;;
18217;SDS011;9234;49.344;11.120;2023-04-10T07:18:21;15.27;;;10.50;;
18217;SDS011;9234;49.344;11.120;2023-04-10T07:20:50;16.00;;;11.00;;
18217;SDS011;9234;49.344;11.120;2023-04-10T07:23:20;12.70;;;9.77;;
18217;SDS011;9234;49.344;11.120;2023-04-10T07:25:48;14.37;;;9.93;;
18217;SDS011;9234;49.344;11.120;2023-04-10T07:28:18;15.70;;;10.40;;
18217;SDS011;9234;49.344;11.120;2023-04-10T07:30:46;11.63;;;9.23;;
18217;SDS011;9234;49.344;11.120;2023-04-10T07:33:14;14.00;;;10.87;;
18217;SDS011;9234;49.344;11.120;2023-04-10T07:35:42;13.00;;;10.47;;
18217;SDS011;9234;49.344;11.120;2023-04-10T07:38:11;13.13;;;10.20;;
18217;SDS011;9234;49.344;11.120;2023-04-10T07:40:40;13.43;;;10.77;;
18217;SDS011;9234;49.344;11.120;2023-04-10T07:43:09;13.17;;;9.87;;
18217;SDS011;9234;49.344;11.120;2023-04-10T07:45:37;14.43;;;10.40;;
18217;SDS011;9234;49.344;11.120;2023-04-10T07:48:05;12.63;;;9.70;;
18217;SDS011;9234;49.344;11.120;2023-04-10T07:50:33;12.00;;;10.00;;
18217;SDS011;9234;49.344;11.120;2023-04-10T07:53:02;12.93;;;10.07;;
18217;SDS011;9234;49.344;11.120;2023-04-10T07:55:36;12.32;;;9.75;;
18217;SDS011;9234;49.344;11.120;2023-04-10T07:58:06;12.10;;;9.73;;
18217;SDS011;9234;49.344;11.120;2023-04-10T08:00:34;13.80;;;9.63;;
18217;SDS011;9234;49.344;11.120;2023-04-10T08:03:03;13.57;;;9.73;;
18217;SDS011;9234;49.344;11.120;2023-04-10T08:05:32;12.30;;;9.13;;
18217;SDS011;9234;49.344;11.120;2023-04-10T08:08:01;11.77;;;9.17;;
18217;SDS011;9234;49.344;11.120;2023-04-10T08:10:29;12.93;;;9.53;;
18217;SDS011;9234;49.344;11.120;2023-04-10T08:12:58;12.52;;;9.98;;
18217;SDS011;9234;49.344;11.120;2023-04-10T08:15:27;12.93;;;10.07;;
18217;SDS011;9234;49.344;11.120;2023-04-10T08:17:55;12.35;;;9.65;;
18217;SDS011;9234;49.344;11.120;2023-04-10T08:20:24;12.35;;;9.60;;
18217;SDS011;9234;49.344;11.120;2023-04-10T08:22:53;12.05;;;9.48;;
18217;SDS011;9234;49.344;11.120;2023-04-10T08:25:31;12.68;;;10.27;;
18217;SDS011;9234;49.344;11.120;2023-04-10T08:27:59;9.90;;;8.50;;
18217;SDS011;9234;49.344;11.120;2023-04-10T08:30:29;11.68;;;8.95;;
18217;SDS011;9234;49.344;11.120;2023-04-10T08:32:57;10.63;;;8.77;;
18217;SDS011;9234;49.344;11.120;2023-04-10T08:35:25;9.57;;;8.20;;
18217;SDS011;9234;49.344;11.120;2023-04-10T08:37:53;9.25;;;8.23;;
18217;SDS011;9234;49.344;11.120;2023-04-10T08:40:38;10.27;;;8.68;;
18217;SDS011;9234;49.344;11.120;2023-04-10T08:43:06;8.73;;;7.82;;
18217;SDS011;9234;49.344;11.120;2023-04-10T08:45:36;9.68;;;7.82;;
18217;SDS011;9234;49.344;11.120;2023-04-10T08:48:07;11.73;;;8.35;;
18217;SDS011;9234;49.344;11.120;2023-04-10T08:50:40;11.10;;;8.57;;
18217;SDS011;9234;49.344;11.120;2023-04-10T08:53:12;10.23;;;8.68;;
18217;SDS011;9234;49.344;11.120;2023-04-10T08:55:41;9.90;;;7.70;;
18217;SDS011;9234;49.344;11.120;2023-04-10T08:58:12;9.00;;;7.68;;
18217;SDS011;9234;49.344;11.120;2023-04-10T09:00:43;8.90;;;8.00;;
18217;SDS011;9234;49.344;11.120;2023-04-10T09:03:11;9.07;;;7.68;;
18217;SDS011;9234;49.344;11.120;2023-04-10T09:05:42;8.48;;;7.60;;
18217;SDS011;9234;49.344;11.120;2023-04-10T09:08:10;7.60;;;6.80;;
18217;SDS011;9234;49.344;11.120;2023-04-10T09:10:41;8.10;;;6.80;;
18217;SDS011;9234;49.344;11.120;2023-04-10T09:13:09;9.88;;;7.93;;
18217;SDS011;9234;49.344;11.120;2023-04-10T09:15:57;8.68;;;7.35;;
18217;SDS011;9234;49.344;11.120;2023-04-10T09:18:39;8.40;;;6.60;;
18217;SDS011;9234;49.344;11.120;2023-04-10T09:21:10;6.45;;;5.85;;
18217;SDS011;9234;49.344;11.120;2023-04-10T09:23:40;6.95;;;5.40;;
18217;SDS011;9234;49.344;11.120;2023-04-10T09:28:55;6.97;;;6.28;;
18217;SDS011;9234;49.344;11.120;2023-04-10T09:31:28;7.15;;;6.30;;
18217;SDS011;9234;49.344;11.120;2023-04-10T09:34:06;6.65;;;5.93;;
18217;SDS011;9234;49.344;11.120;2023-04-10T09:36:38;6.50;;;5.85;;
18217;SDS011;9234;49.344;11.120;2023-04-10T09:39:08;6.25;;;5.65;;
18217;SDS011;9234;49.344;11.120;2023-04-10T09:41:47;6.57;;;5.45;;
18217;SDS011;9234;49.344;11.120;2023-04-10T09:44:18;6.28;;;5.68;;
18217;SDS011;9234;49.344;11.120;2023-04-10T09:46:59;6.53;;;5.88;;
18217;SDS011;9234;49.344;11.120;2023-04-10T09:49:43;6.18;;;5.57;;
18217;SDS011;9234;49.344;11.120;2023-04-10T09:52:17;6.70;;;5.85;;
18217;SDS011;9234;49.344;11.120;2023-04-10T09:54:46;6.97;;;6.28;;
18217;SDS011;9234;49.344;11.120;2023-04-10T09:57:15;5.97;;;5.38;;
18217;SDS011;9234;49.344;11.120;2023-04-10T09:59:46;6.85;;;6.15;;
18217;SDS011;9234;49.344;11.120;2023-04-10T10:02:19;6.63;;;6.03;;
18217;SDS011;9234;49.344;11.120;2023-04-10T10:04:50;6.25;;;5.63;;
18217;SDS011;9234;49.344;11.120;2023-04-10T10:07:20;6.18;;;5.57;;
18217;SDS011;9234;49.344;11.120;2023-04-10T10:09:51;6.00;;;5.40;;
18217;SDS011;9234;49.344;11.120;2023-04-10T10:12:21;6.47;;;5.88;;
18217;SDS011;9234;49.344;11.120;2023-04-10T10:14:55;6.18;;;5.55;;
18217;SDS011;9234;49.344;11.120;2023-04-10T10:17:30;6.22;;;5.43;;
18217;SDS011;9234;49.344;11.120;2023-04-10T10:20:06;5.72;;;5.13;;
18217;SDS011;9234;49.344;11.120;2023-04-10T10:22:36;8.93;;;5.95;;
18217;SDS011;9234;49.344;11.120;2023-04-10T10:25:05;5.68;;;5.05;;
18217;SDS011;9234;49.344;11.120;2023-04-10T10:27:36;5.35;;;4.85;;
18217;SDS011;9234;49.344;11.120;2023-04-10T10:30:06;4.80;;;4.40;;
18217;SDS011;9234;49.344;11.120;2023-04-10T10:32:56;5.00;;;4.50;;
18217;SDS011;9234;49.344;11.120;2023-04-10T10:35:26;6.10;;;5.50;;
18217;SDS011;9234;49.344;11.120;2023-04-10T10:37:57;6.30;;;5.70;;
18217;SDS011;9234;49.344;11.120;2023-04-10T10:40:27;4.95;;;4.53;;
18217;SDS011;9234;49.344;11.120;2023-04-10T10:43:05;4.85;;;4.45;;
18217;SDS011;9234;49.344;11.120;2023-04-10T10:45:45;5.75;;;4.90;;
18217;SDS011;9234;49.344;11.120;2023-04-10T10:48:22;5.22;;;4.72;;
18217;SDS011;9234;49.344;11.120;2023-04-10T10:50:51;5.35;;;4.82;;
18217;SDS011;9234;49.344;11.120;2023-04-10T10:53:34;4.70;;;4.30;;
18217;SDS011;9234;49.344;11.120;2023-04-10T10:56:31;4.22;;;3.85;;
18217;SDS011;9234;49.344;11.120;2023-04-10T10:59:01;4.80;;;4.40;;
18217;SDS011;9234;49.344;11.120;2023-04-10T11:01:30;3.63;;;3.33;;
18217;SDS011;9234;49.344;11.120;2023-04-10T11:04:00;5.15;;;4.65;;
18217;SDS011;9234;49.344;11.120;2023-04-10T11:07:11;4.38;;;3.97;;
18217;SDS011;9234;49.344;11.120;2023-04-10T11:09:43;4.25;;;3.85;;
18217;SDS011;9234;49.344;11.120;2023-04-10T11:12:17;4.05;;;3.75;;
18217;SDS011;9234;49.344;11.120;2023-04-10T11:14:55;4.88;;;4.03;;
18217;SDS011;9234;49.344;11.120;2023-04-10T11:20:16;4.43;;;4.03;;
18217;SDS011;9234;49.344;11.120;2023-04-10T11:23:06;3.70;;;3.40;;
18217;SDS011;9234;49.344;11.120;2023-04-10T11:25:46;4.50;;;4.10;;
18217;SDS011;9234;49.344;11.120;2023-04-10T11:28:35;4.65;;;4.22;;
18217;SDS011;9234;49.344;11.120;2023-04-10T11:31:14;3.83;;;3.53;;
18217;SDS011;9234;49.344;11.120;2023-04-10T11:33:45;3.85;;;3.55;;
18217;SDS011;9234;49.344;11.120;2023-04-10T11:36:16;4.25;;;3.60;;
18217;SDS011;9234;49.344;11.120;2023-04-10T11:38:54;3.92;;;3.63;;
18217;SDS011;9234;49.344;11.120;2023-04-10T11:41:27;4.28;;;3.88;;
18217;SDS011;9234;49.344;11.120;2023-04-10T11:43:57;3.65;;;3.33;;
18217;SDS011;9234;49.344;11.120;2023-04-10T11:46:27;4.18;;;3.78;;
18217;SDS011;9234;49.344;11.120;2023-04-10T11:48:57;4.18;;;3.78;;
18217;SDS011;9234;49.344;11.120;2023-04-10T11:51:28;4.20;;;3.80;;
18217;SDS011;9234;49.344;11.120;2023-04-10T11:54:03;4.45;;;4.15;;
18217;SDS011;9234;49.344;11.120;2023-04-10T11:56:34;4.43;;;4.03;;
18217;SDS011;9234;49.344;11.120;2023-04-10T11:59:03;5.03;;;3.83;;
18217;SDS011;9234;49.344;11.120;2023-04-10T12:01:35;3.70;;;3.40;;
18217;SDS011;9234;49.344;11.120;2023-04-10T12:04:14;4.38;;;3.97;;
18217;SDS011;9234;49.344;11.120;2023-04-10T12:06:45;4.38;;;3.60;;
18217;SDS011;9234;49.344;11.120;2023-04-10T12:09:16;3.50;;;3.20;;
18217;SDS011;9234;49.344;11.120;2023-04-10T12:11:48;3.85;;;3.55;;
18217;SDS011;9234;49.344;11.120;2023-04-10T12:14:19;4.35;;;3.30;;
18217;SDS011;9234;49.344;11.120;2023-04-10T12:16:48;3.90;;;3.50;;
18217;SDS011;9234;49.344;11.120;2023-04-10T12:19:17;3.65;;;3.35;;
18217;SDS011;9234;49.344;11.120;2023-04-10T12:21:48;4.45;;;4.05;;
18217;SDS011;9234;49.344;11.120;2023-04-10T12:27:16;3.35;;;3.05;;
18217;SDS011;9234;49.344;11.120;2023-04-10T12:29:45;3.92;;;3.47;;
18217;SDS011;9234;49.344;11.120;2023-04-10T12:32:16;2.85;;;2.65;;
18217;SDS011;9234;49.344;11.120;2023-04-10T12:34:48;2.90;;;2.67;;
18217;SDS011;9234;49.344;11.120;2023-04-10T12:37:19;4.07;;;3.78;;
18217;SDS011;9234;49.344;11.120;2023-04-10T12:39:47;3.97;;;3.67;;
18217;SDS011;9234;49.344;11.120;2023-04-10T12:42:17;3.72;;;3.42;;
18217;SDS011;9234;49.344;11.120;2023-04-10T12:44:51;4.43;;;4.03;;
18217;SDS011;9234;49.344;11.120;2023-04-10T12:47:22;3.78;;;3.47;;
18217;SDS011;9234;49.344;11.120;2023-04-10T12:50:01;3.75;;;3.45;;
18217;SDS011;9234;49.344;11.120;2023-04-10T12:52:37;3.60;;;3.30;;
18217;SDS011;9234;49.344;11.120;2023-04-10T12:55:10;3.72;;;3.42;;
18217;SDS011;9234;49.344;11.120;2023-04-10T12:57:41;2.63;;;2.42;;
18217;SDS011;9234;49.344;11.120;2023-04-10T13:00:12;3.65;;;3.35;;
18217;SDS011;9234;49.344;11.120;2023-04-10T13:02:43;4.07;;;3.72;;
18217;SDS011;9234;49.344;11.120;2023-04-10T13:05:13;3.50;;;3.20;;
18217;SDS011;9234;49.344;11.120;2023-04-10T13:07:43;4.07;;;3.67;;
18217;SDS011;9234;49.344;11.120;2023-04-10T13:10:11;4.07;;;3.78;;
18217;SDS011;9234;49.344;11.120;2023-04-10T13:12:39;3.28;;;3.03;;
18217;SDS011;9234;49.344;11.120;2023-04-10T13:15:09;3.35;;;3.15;;
18217;SDS011;9234;49.344;11.120;2023-04-10T13:17:37;4.15;;;3.40;;
18217;SDS011;9234;49.344;11.120;2023-04-10T13:20:07;3.67;;;3.38;;
18217;SDS011;9234;49.344;11.120;2023-04-10T13:22:38;3.25;;;3.05;;
18217;SDS011;9234;49.344;11.120;2023-04-10T13:25:08;3.10;;;2.90;;
18217;SDS011;9234;49.344;11.120;2023-04-10T13:27:36;3.75;;;3.45;;
18217;SDS011;9234;49.344;11.120;2023-04-10T13:30:05;3.45;;;3.25;;
18217;SDS011;9234;49.344;11.120;2023-04-10T13:32:35;4.30;;;3.35;;
18217;SDS011;9234;49.344;11.120;2023-04-10T13:35:03;5.57;;;3.35;;
18217;SDS011;9234;49.344;11.120;2023-04-10T13:37:32;3.38;;;3.17;;
18217;SDS011;9234;49.344;11.120;2023-04-10T13:40:00;3.95;;;3.20;;
18217;SDS011;9234;49.344;11.120;2023-04-10T13:42:31;2.60;;;2.40;;
18217;SDS011;9234;49.344;11.120;2023-04-10T13:45:03;3.50;;;3.00;;
18217;SDS011;9234;49.344;11.120;2023-04-10T13:47:32;3.40;;;3.10;;
18217;SDS011;9234;49.344;11.120;2023-04-10T13:50:01;3.03;;;2.83;;
18217;SDS011;9234;49.344;11.120;2023-04-10T13:52:29;3.00;;;2.70;;
18217;SDS011;9234;49.344;11.120;2023-04-10T13:54:57;2.90;;;2.70;;
18217;SDS011;9234;49.344;11.120;2023-04-10T13:57:25;3.30;;;3.00;;
18217;SDS011;9234;49.344;11.120;2023-04-10T13:59:55;3.20;;;2.92;;
18217;SDS011;9234;49.344;11.120;2023-04-10T14:02:23;4.07;;;3.25;;
18217;SDS011;9234;49.344;11.120;2023-04-10T14:04:52;3.65;;;3.35;;
18217;SDS011;9234;49.344;11.120;2023-04-10T14:07:20;3.63;;;3.35;;
18217;SDS011;9234;49.344;11.120;2023-04-10T14:09:48;3.72;;;3.40;;
18217;SDS011;9234;49.344;11.120;2023-04-10T14:12:16;3.58;;;2.92;;
18217;SDS011;9234;49.344;11.120;2023-04-10T14:14:46;3.92;;;3.47;;
18217;SDS011;9234;49.344;11.120;2023-04-10T14:17:15;3.80;;;3.50;;
18217;SDS011;9234;49.344;11.120;2023-04-10T14:19:44;3.30;;;3.10;;
18217;SDS011;9234;49.344;11.120;2023-04-10T14:22:14;3.75;;;3.45;;
18217;SDS011;9234;49.344;11.120;2023-04-10T14:24:44;3.50;;;3.20;;
18217;SDS011;9234;49.344;11.120;2023-04-10T14:27:12;3.70;;;3.40;;
18217;SDS011;9234;49.344;11.120;2023-04-10T14:29:42;4.05;;;3.58;;
18217;SDS011;9234;49.344;11.120;2023-04-10T14:32:21;3.40;;;3.20;;
18217;SDS011;9234;49.344;11.120;2023-04-10T14:34:50;4.07;;;3.78;;
18217;SDS011;9234;49.344;11.120;2023-04-10T14:37:18;4.35;;;4.05;;
18217;SDS011;9234;49.344;11.120;2023-04-10T14:39:47;4.00;;;3.63;;
18217;SDS011;9234;49.344;11.120;2023-04-10T14:42:16;4.35;;;3.95;;
18217;SDS011;9234;49.344;11.120;2023-04-10T14:44:44;3.55;;;3.30;;
18217;SDS011;9234;49.344;11.120;2023-04-10T14:47:12;3.55;;;3.25;;
18217;SDS011;9234;49.344;11.120;2023-04-10T14:49:42;4.22;;;3.92;;
18217;SDS011;9234;49.344;11.120;2023-04-10T14:52:10;4.22;;;3.83;;
18217;SDS011;9234;49.344;11.120;2023-04-10T14:54:38;4.75;;;4.35;;
18217;SDS011;9234;49.344;11.120;2023-04-10T14:57:06;3.90;;;3.60;;
18217;SDS011;9234;49.344;11.120;2023-04-10T14:59:35;3.83;;;3.53;;
18217;SDS011;9234;49.344;11.120;2023-04-10T15:02:03;4.93;;;3.70;;
18217;SDS011;9234;49.344;11.120;2023-04-10T15:04:31;4.05;;;3.70;;
18217;SDS011;9234;49.344;11.120;2023-04-10T15:07:01;4.40;;;4.00;;
18217;SDS011;9234;49.344;11.120;2023-04-10T15:09:30;4.05;;;3.75;;
18217;SDS011;9234;49.344;11.120;2023-04-10T15:11:58;4.78;;;3.80;;
18217;SDS011;9234;49.344;11.120;2023-04-10T15:14:27;4.15;;;3.85;;
18217;SDS011;9234;49.344;11.120;2023-04-10T15:16:55;4.07;;;3.75;;